createdAt,value
2018-05-29T00:00:18.707Z,1032.18
2018-05-29T00:01:18.712Z,1032.2
2018-05-29T00:02:18.717Z,1032.18
2018-05-29T00:03:18.709Z,1032.19
2018-05-29T00:04:18.702Z,1032.16
2018-05-29T00:05:18.701Z,1032.16
2018-05-29T00:06:18.699Z,1032.17
2018-05-29T00:07:18.703Z,1032.17
2018-05-29T00:08:18.702Z,1032.19
2018-05-29T00:09:18.696Z,1032.17
2018-05-29T00:11:18.698Z,1032.16
2018-05-29T00:12:18.694Z,1032.21
2018-05-29T00:13:18.690Z,1032.22
2018-05-29T00:14:18.700Z,1032.25
2018-05-29T00:15:18.687Z,1032.24
2018-05-29T00:16:18.686Z,1032.28
2018-05-29T00:17:18.716Z,1032.28
2018-05-29T00:18:18.688Z,1032.25
2018-05-29T00:19:18.687Z,1032.29
2018-05-29T00:20:18.682Z,1032.25
2018-05-29T00:21:18.682Z,1032.25
2018-05-29T00:22:18.678Z,1032.25
2018-05-29T00:23:18.681Z,1032.3
2018-05-29T00:24:18.674Z,1032.27
2018-05-29T00:25:18.674Z,1032.26
2018-05-29T00:26:18.677Z,1032.26
2018-05-29T00:27:18.671Z,1032.27
2018-05-29T00:28:18.672Z,1032.25
2018-05-29T00:29:18.667Z,1032.24
2018-05-29T00:30:18.671Z,1032.23
2018-05-29T00:31:18.668Z,1032.24
2018-05-29T00:32:18.662Z,1032.24
2018-05-29T00:33:18.660Z,1032.24
2018-05-29T00:34:18.665Z,1032.21
2018-05-29T00:35:18.663Z,1032.21
2018-05-29T00:36:18.655Z,1032.19
2018-05-29T00:37:18.654Z,1032.21
2018-05-29T00:38:18.665Z,1032.24
2018-05-29T00:39:18.652Z,1032.21
2018-05-29T00:40:18.654Z,1032.2
2018-05-29T00:41:18.648Z,1032.18
2018-05-29T00:42:18.651Z,1032.19
2018-05-29T00:43:18.644Z,1032.18
2018-05-29T00:44:18.648Z,1032.12
2018-05-29T00:45:18.646Z,1032.19
2018-05-29T00:46:18.643Z,1032.16
2018-05-29T00:47:18.637Z,1032.17
2018-05-29T00:48:18.636Z,1032.15
2018-05-29T00:49:18.634Z,1032.13
2018-05-29T00:50:18.638Z,1032.14
2018-05-29T00:51:18.637Z,1032.1
2018-05-29T00:52:18.633Z,1032.1
2018-05-29T00:53:18.629Z,1032.09
2018-05-29T00:54:18.626Z,1032.1
2018-05-29T00:55:18.630Z,1032.08
2018-05-29T00:56:18.623Z,1032.09
2018-05-29T00:57:18.628Z,1032.1
2018-05-29T00:58:18.623Z,1032.07
2018-05-29T00:59:18.623Z,1032.1
2018-05-29T01:00:18.616Z,1032.07
2018-05-29T01:01:18.619Z,1032.07
2018-05-29T01:02:18.612Z,1032.1
2018-05-29T01:03:18.616Z,1032.09
2018-05-29T01:04:18.610Z,1032.12
2018-05-29T01:05:18.607Z,1032.1
2018-05-29T01:06:18.610Z,1032.1
2018-05-29T01:07:18.615Z,1032.06
2018-05-29T01:08:18.602Z,1032.05
2018-05-29T01:09:18.604Z,1032.07
2018-05-29T01:10:18.599Z,1032.06
2018-05-29T01:11:18.602Z,1032.03
2018-05-29T01:12:18.594Z,1032.04
2018-05-29T01:13:18.600Z,1032.08
2018-05-29T01:14:18.592Z,1032.06
2018-05-29T01:15:18.597Z,1032.02
2018-05-29T01:16:18.588Z,1032.07
2018-05-29T01:17:18.592Z,1032
2018-05-29T01:18:18.585Z,1032.07
2018-05-29T01:19:18.588Z,1032.06
2018-05-29T01:20:18.586Z,1032.08
2018-05-29T01:21:18.585Z,1032.08
2018-05-29T01:22:18.577Z,1032.11
2018-05-29T01:23:18.575Z,1032.13
2018-05-29T01:24:18.579Z,1032.12
2018-05-29T01:25:18.584Z,1032.12
2018-05-29T01:26:18.574Z,1032.14
2018-05-29T01:27:18.567Z,1032.12
2018-05-29T01:28:18.576Z,1032.15
2018-05-29T01:29:18.569Z,1032.19
2018-05-29T01:30:18.560Z,1032.17
2018-05-29T01:31:18.564Z,1032.21
2018-05-29T01:32:18.560Z,1032.15
2018-05-29T01:33:18.561Z,1032.12
2018-05-29T01:34:18.553Z,1032.15
2018-05-29T01:35:18.557Z,1032.17
2018-05-29T01:36:18.555Z,1032.15
2018-05-29T01:37:18.552Z,1032.13
2018-05-29T01:38:18.545Z,1032.09
2018-05-29T01:39:18.545Z,1032.11
2018-05-29T01:40:18.546Z,1032.14
2018-05-29T01:41:18.543Z,1032.14
2018-05-29T01:42:18.542Z,1032.15
2018-05-29T01:43:18.539Z,1032.15
2018-05-29T01:44:18.539Z,1032.13
2018-05-29T01:45:18.533Z,1032.1
2018-05-29T01:46:18.533Z,1032.16
2018-05-29T01:47:18.526Z,1032.15
2018-05-29T01:48:18.529Z,1032.11
2018-05-29T01:49:18.522Z,1032.11
2018-05-29T01:50:18.526Z,1032.1
2018-05-29T01:51:18.519Z,1032.14
2018-05-29T01:52:18.516Z,1032.13
2018-05-29T01:53:18.514Z,1032.14
2018-05-29T01:54:18.517Z,1032.12
2018-05-29T01:55:18.510Z,1032.16
2018-05-29T01:56:18.512Z,1032.12
2018-05-29T01:57:18.510Z,1032.14
2018-05-29T01:58:18.508Z,1032.17
2018-05-29T01:59:18.501Z,1032.13
2018-05-29T02:00:18.506Z,1032.17
2018-05-29T02:01:18.497Z,1032.17
2018-05-29T02:02:18.500Z,1032.16
2018-05-29T02:03:18.491Z,1032.2
2018-05-29T02:04:18.530Z,1032.18
2018-05-29T02:05:18.487Z,1032.2
2018-05-29T02:06:18.490Z,1032.22
2018-05-29T02:07:18.484Z,1032.22
2018-05-29T02:08:18.479Z,1032.18
2018-05-29T02:09:18.478Z,1032.2
2018-05-29T02:10:18.480Z,1032.22
2018-05-29T02:11:18.478Z,1032.21
2018-05-29T02:12:18.470Z,1032.21
2018-05-29T02:13:18.470Z,1032.25
2018-05-29T02:14:18.466Z,1032.24
2018-05-29T02:15:18.468Z,1032.25
2018-05-29T02:16:18.461Z,1032.24
2018-05-29T02:17:18.464Z,1032.27
2018-05-29T02:18:18.457Z,1032.28
2018-05-29T02:19:18.459Z,1032.28
2018-05-29T02:20:18.451Z,1032.32
2018-05-29T02:21:18.448Z,1032.3
2018-05-29T02:22:18.452Z,1032.3
2018-05-29T02:23:18.444Z,1032.34
2018-05-29T02:24:18.442Z,1032.3
2018-05-29T02:25:18.441Z,1032.34
2018-05-29T02:26:18.442Z,1032.32
2018-05-29T02:27:18.440Z,1032.35
2018-05-29T02:28:18.433Z,1032.34
2018-05-29T02:29:18.429Z,1032.3
2018-05-29T02:30:18.427Z,1032.32
2018-05-29T02:31:18.429Z,1032.33
2018-05-29T02:32:18.430Z,1032.31
2018-05-29T02:33:18.425Z,1032.33
2018-05-29T02:34:18.417Z,1032.37
2018-05-29T02:35:18.420Z,1032.31
2018-05-29T02:36:18.411Z,1032.32
2018-05-29T02:37:18.414Z,1032.34
2018-05-29T02:38:18.407Z,1032.34
2018-05-29T02:39:18.413Z,1032.32
2018-05-29T02:40:18.408Z,1032.31
2018-05-29T02:41:18.406Z,1032.3
2018-05-29T02:42:18.397Z,1032.29
2018-05-29T02:43:18.397Z,1032.3
2018-05-29T02:44:18.397Z,1032.27
2018-05-29T02:45:18.399Z,1032.27
2018-05-29T02:46:18.387Z,1032.25
2018-05-29T02:47:18.389Z,1032.26
2018-05-29T02:48:18.382Z,1032.27
2018-05-29T02:49:18.384Z,1032.28
2018-05-29T02:50:18.377Z,1032.23
2018-05-29T02:51:18.380Z,1032.25
2018-05-29T02:52:18.372Z,1032.22
2018-05-29T02:53:18.375Z,1032.23
2018-05-29T02:54:18.365Z,1032.26
2018-05-29T02:55:18.369Z,1032.25
2018-05-29T02:56:18.622Z,1032.24
2018-05-29T02:57:18.363Z,1032.22
2018-05-29T02:58:18.356Z,1032.22
2018-05-29T02:59:18.353Z,1032.24
2018-05-29T03:00:18.355Z,1032.19
2018-05-29T03:01:18.352Z,1032.22
2018-05-29T03:02:18.351Z,1032.26
2018-05-29T03:03:18.343Z,1032.26
2018-05-29T03:04:18.346Z,1032.21
2018-05-29T03:05:18.339Z,1032.22
2018-05-29T03:06:18.339Z,1032.23
2018-05-29T03:07:18.332Z,1032.22
2018-05-29T03:08:18.334Z,1032.2
2018-05-29T03:09:18.326Z,1032.14
2018-05-29T03:10:18.328Z,1032.16
2018-05-29T03:11:18.321Z,1032.16
2018-05-29T03:12:18.323Z,1032.18
2018-05-29T03:13:18.322Z,1032.16
2018-05-29T03:14:18.313Z,1032.14
2018-05-29T03:15:18.311Z,1032.15
2018-05-29T03:16:18.313Z,1032.09
2018-05-29T03:17:18.314Z,1032.06
2018-05-29T03:18:18.307Z,1032.07
2018-05-29T03:19:18.300Z,1032.03
2018-05-29T03:20:18.317Z,1032.06
2018-05-29T03:21:18.295Z,1032.01
2018-05-29T03:22:18.297Z,1032
2018-05-29T03:23:18.288Z,1032.07
2018-05-29T03:24:18.292Z,1032.04
2018-05-29T03:25:18.283Z,1031.96
2018-05-29T03:26:18.288Z,1032
2018-05-29T03:27:18.279Z,1031.97
2018-05-29T03:28:18.277Z,1031.9
2018-05-29T03:29:18.274Z,1031.87
2018-05-29T03:30:18.277Z,1031.79
2018-05-29T03:31:18.274Z,1031.74
2018-05-29T03:32:18.265Z,1031.6
2018-05-29T03:33:18.263Z,1031.51
2018-05-29T03:34:18.260Z,1031.38
2018-05-29T03:35:18.264Z,1031.27
2018-05-29T03:36:18.257Z,1031.14
2018-05-29T03:37:18.254Z,1031.04
2018-05-29T03:38:18.256Z,1030.98
2018-05-29T03:39:18.248Z,1030.88
2018-05-29T03:40:18.254Z,1030.75
2018-05-29T03:41:18.245Z,1030.65
2018-05-29T03:42:18.252Z,1030.44
2018-05-29T03:43:18.240Z,1030.38
2018-05-29T03:44:18.240Z,1030.29
2018-05-29T03:45:18.236Z,1030.16
2018-05-29T03:46:18.240Z,1030.04
2018-05-29T03:47:18.240Z,1029.98
2018-05-29T03:48:18.235Z,1029.9
2018-05-29T03:49:18.232Z,1029.82
2018-05-29T03:50:18.236Z,1029.75
2018-05-29T03:51:18.254Z,1029.66
2018-05-29T03:52:18.241Z,1029.53
2018-05-29T03:53:18.228Z,1029.5
2018-05-29T03:54:18.233Z,1029.38
2018-05-29T03:55:18.227Z,1029.35
2018-05-29T03:56:18.232Z,1029.24
2018-05-29T03:57:18.226Z,1029.09
2018-05-29T03:58:18.232Z,1029.08
2018-05-29T03:59:18.227Z,1028.95
2018-05-29T04:00:18.226Z,1028.84
2018-05-29T04:01:18.228Z,1028.73
2018-05-29T04:02:18.233Z,1028.63
2018-05-29T04:03:18.230Z,1028.59
2018-05-29T04:04:18.235Z,1028.54
2018-05-29T04:05:18.236Z,1028.51
2018-05-29T04:06:18.237Z,1028.43
2018-05-29T04:07:18.233Z,1028.4
2018-05-29T04:08:18.245Z,1028.33
2018-05-29T04:09:18.271Z,1028.24
2018-05-29T04:10:18.243Z,1028.11
2018-05-29T04:11:18.240Z,1028.06
2018-05-29T04:12:18.248Z,1027.96
2018-05-29T04:13:18.258Z,1027.92
2018-05-29T04:14:18.253Z,1027.85
2018-05-29T04:15:18.254Z,1027.77
2018-05-29T04:16:18.253Z,1027.69
2018-05-29T04:17:18.257Z,1027.66
2018-05-29T04:18:18.267Z,1027.56
2018-05-29T04:19:18.268Z,1027.5
2018-05-29T04:20:18.268Z,1027.45
2018-05-29T04:21:18.272Z,1027.44
2018-05-29T04:22:18.275Z,1027.43
2018-05-29T04:23:18.285Z,1027.42
2018-05-29T04:24:18.284Z,1027.36
2018-05-29T04:25:18.298Z,1027.32
2018-05-29T04:26:18.294Z,1027.26
2018-05-29T04:27:18.304Z,1027.2
2018-05-29T04:28:18.304Z,1027.2
2018-05-29T04:29:18.308Z,1027.13
2018-05-29T04:30:18.319Z,1027.03
2018-05-29T04:31:18.319Z,1026.97
2018-05-29T04:32:18.325Z,1026.87
2018-05-29T04:33:18.330Z,1026.78
2018-05-29T04:34:18.341Z,1026.69
2018-05-29T04:35:18.348Z,1026.64
2018-05-29T04:36:18.352Z,1026.61
2018-05-29T04:37:18.354Z,1026.62
2018-05-29T04:38:18.360Z,1026.65
2018-05-29T04:39:18.372Z,1026.6
2018-05-29T04:40:18.373Z,1026.57
2018-05-29T04:41:18.384Z,1026.59
2018-05-29T04:42:18.386Z,1026.55
2018-05-29T04:43:18.443Z,1026.47
2018-05-29T04:44:18.399Z,1026.39
2018-05-29T04:46:18.416Z,1026.27
2018-05-29T04:47:18.426Z,1026.21
2018-05-29T04:48:18.433Z,1026.14
2018-05-29T04:49:18.436Z,1026.2
2018-05-29T04:50:18.444Z,1026.14
2018-05-29T04:51:18.450Z,1026.05
2018-05-29T04:52:18.463Z,1025.98
2018-05-29T04:53:18.467Z,1025.94
2018-05-29T04:54:18.484Z,1025.81
2018-05-29T04:55:18.488Z,1025.71
2018-05-29T04:56:18.490Z,1025.71
2018-05-29T04:57:18.505Z,1025.65
2018-05-29T04:58:18.507Z,1025.61
2018-05-29T04:59:18.521Z,1025.46
2018-05-29T05:00:18.525Z,1025.4
2018-05-29T05:01:18.534Z,1025.31
2018-05-29T05:02:18.542Z,1025.27
2018-05-29T05:03:18.557Z,1025.31
2018-05-29T05:04:18.566Z,1025.29
2018-05-29T05:05:18.570Z,1025.26
2018-05-29T05:06:18.579Z,1025.24
2018-05-29T05:07:18.589Z,1025.24
2018-05-29T05:08:18.604Z,1025.23
2018-05-29T05:09:18.606Z,1025.26
2018-05-29T05:10:18.624Z,1025.32
2018-05-29T05:11:18.627Z,1025.3
2018-05-29T05:12:18.643Z,1025.24
2018-05-29T05:13:18.647Z,1025.18
2018-05-29T05:14:18.663Z,1025.19
2018-05-29T05:15:18.671Z,1025.27
2018-05-29T05:16:18.684Z,1025.25
2018-05-29T05:17:18.693Z,1025.27
2018-05-29T05:18:18.704Z,1025.25
2018-05-29T05:19:18.713Z,1025.2
2018-05-29T05:20:18.786Z,1025.16
2018-05-29T05:21:18.733Z,1025.14
2018-05-29T05:22:18.741Z,1025.22
2018-05-29T05:23:18.753Z,1025.29
2018-05-29T05:24:18.768Z,1025.3
2018-05-29T05:25:18.774Z,1025.31
2018-05-29T05:26:18.790Z,1025.29
2018-05-29T05:27:18.797Z,1025.24
2018-05-29T05:28:18.811Z,1025.17
2018-05-29T05:29:18.818Z,1025.15
2018-05-29T05:30:18.839Z,1025.2
2018-05-29T05:31:18.839Z,1025.23
2018-05-29T05:32:19.107Z,1025.21
2018-05-29T05:33:18.868Z,1025.25
2018-05-29T05:34:18.874Z,1025.33
2018-05-29T05:35:18.896Z,1025.34
2018-05-29T05:36:18.901Z,1025.32
2018-05-29T05:37:18.909Z,1025.45
2018-05-29T05:38:18.919Z,1025.52
2018-05-29T05:39:18.931Z,1025.61
2018-05-29T05:40:18.948Z,1025.58
2018-05-29T05:41:18.954Z,1025.55
2018-05-29T05:42:18.971Z,1025.6
2018-05-29T05:43:18.979Z,1025.59
2018-05-29T05:44:18.994Z,1025.72
2018-05-29T05:45:19.001Z,1025.61
2018-05-29T05:46:19.012Z,1025.52
2018-05-29T05:47:19.030Z,1025.37
2018-05-29T05:48:19.035Z,1025.4
2018-05-29T05:49:19.050Z,1025.39
2018-05-29T05:50:19.058Z,1025.41
2018-05-29T05:51:19.075Z,1025.33
2018-05-29T05:52:19.087Z,1025.22
2018-05-29T05:53:19.093Z,1025.22
2018-05-29T05:54:19.111Z,1025.24
2018-05-29T05:55:19.117Z,1025.29
2018-05-29T05:56:19.135Z,1025.28
2018-05-29T05:57:19.140Z,1025.2
2018-05-29T05:58:19.160Z,1025.1
2018-05-29T05:59:19.163Z,1025.12
2018-05-29T06:00:19.181Z,1025.2
2018-05-29T06:01:19.190Z,1025.33
2018-05-29T06:02:19.206Z,1025.42
2018-05-29T06:03:19.218Z,1025.47
2018-05-29T06:04:19.233Z,1025.49
2018-05-29T06:05:19.243Z,1025.41
2018-05-29T06:06:19.254Z,1025.34
2018-05-29T06:07:19.261Z,1025.23
2018-05-29T06:08:19.273Z,1025.09
2018-05-29T06:09:19.290Z,1024.99
2018-05-29T06:10:19.303Z,1024.91
2018-05-29T06:11:19.311Z,1024.86
2018-05-29T06:12:19.327Z,1024.76
2018-05-29T06:13:19.334Z,1024.7
2018-05-29T06:14:19.353Z,1024.75
2018-05-29T06:15:19.363Z,1024.61
2018-05-29T06:16:19.431Z,1024.65
2018-05-29T06:17:19.383Z,1024.74
2018-05-29T06:18:19.401Z,1024.7
2018-05-29T06:19:19.407Z,1024.66
2018-05-29T06:20:19.426Z,1024.71
2018-05-29T06:21:19.438Z,1024.73
2018-05-29T06:22:19.451Z,1024.74
2018-05-29T06:23:19.458Z,1024.75
2018-05-29T06:24:19.539Z,1024.71
2018-05-29T06:25:19.489Z,1024.71
2018-05-29T06:26:19.500Z,1024.71
2018-05-29T06:27:19.515Z,1024.66
2018-05-29T06:28:19.522Z,1024.65
2018-05-29T06:29:19.547Z,1024.6
2018-05-29T06:30:19.546Z,1024.54
2018-05-29T06:31:19.565Z,1024.43
2018-05-29T06:32:19.571Z,1024.4
2018-05-29T06:33:19.589Z,1024.27
2018-05-29T06:34:19.597Z,1024.18
2018-05-29T06:35:19.613Z,1024
2018-05-29T06:36:19.621Z,1023.96
2018-05-29T06:37:19.638Z,1024.04
2018-05-29T06:38:19.653Z,1024.05
2018-05-29T06:39:19.658Z,1024.16
2018-05-29T06:40:19.672Z,1024.13
2018-05-29T06:41:19.689Z,1024.1
2018-05-29T06:42:19.702Z,1024.1
2018-05-29T06:43:19.715Z,1024.06
2018-05-29T06:44:19.722Z,1024.12
2018-05-29T06:45:19.741Z,1024.1
2018-05-29T06:46:19.748Z,1023.99
2018-05-29T06:47:19.766Z,1023.97
2018-05-29T06:48:19.778Z,1023.84
2018-05-29T06:49:19.793Z,1023.85
2018-05-29T06:50:19.801Z,1023.83
2018-05-29T06:51:19.818Z,1023.83
2018-05-29T06:52:19.831Z,1023.84
2018-05-29T06:53:19.839Z,1023.82
2018-05-29T06:54:19.851Z,1023.78
2018-05-29T06:55:19.868Z,1023.83
2018-05-29T06:56:19.882Z,1023.79
2018-05-29T06:57:19.889Z,1023.87
2018-05-29T06:58:19.903Z,1023.83
2018-05-29T06:59:19.915Z,1023.9
2018-05-29T07:00:19.934Z,1023.87
2018-05-29T07:01:19.942Z,1023.88
2018-05-29T07:02:19.955Z,1023.89
2018-05-29T07:03:19.973Z,1023.94
2018-05-29T07:04:19.981Z,1023.96
2018-05-29T07:05:19.999Z,1023.96
2018-05-29T07:06:20.006Z,1023.89
2018-05-29T07:07:20.025Z,1023.77
2018-05-29T07:08:20.032Z,1023.8
2018-05-29T07:09:20.047Z,1023.74
2018-05-29T07:10:20.057Z,1023.79
2018-05-29T07:11:20.076Z,1023.73
2018-05-29T07:12:20.092Z,1023.79
2018-05-29T07:13:20.100Z,1023.73
2018-05-29T07:14:20.110Z,1023.78
2018-05-29T07:15:20.127Z,1023.73
2018-05-29T07:16:20.136Z,1023.68
2018-05-29T07:17:20.160Z,1023.59
2018-05-29T07:18:20.161Z,1023.55
2018-05-29T07:19:20.192Z,1023.59
2018-05-29T07:20:20.194Z,1023.53
2018-05-29T07:21:20.205Z,1023.54
2018-05-29T07:22:20.213Z,1023.52
2018-05-29T07:23:20.232Z,1023.47
2018-05-29T07:24:20.241Z,1023.36
2018-05-29T07:25:20.252Z,1023.29
2018-05-29T07:26:20.267Z,1023.29
2018-05-29T07:27:20.395Z,1023.28
2018-05-29T07:28:20.292Z,1023.19
2018-05-29T07:29:20.314Z,1023.14
2018-05-29T07:30:20.324Z,1023.09
2018-05-29T07:31:20.338Z,1023.01
2018-05-29T07:32:20.345Z,1023.09
2018-05-29T07:33:20.364Z,1023.05
2018-05-29T07:34:20.374Z,1023.19
2018-05-29T07:35:20.392Z,1023.04
2018-05-29T07:36:20.401Z,1023.1
2018-05-29T07:37:20.420Z,1023.09
2018-05-29T07:38:20.429Z,1023.06
2018-05-29T07:39:20.448Z,1023.11
2018-05-29T07:40:20.456Z,1023.22
2018-05-29T07:41:20.470Z,1023.41
2018-05-29T07:42:20.484Z,1023.32
2018-05-29T07:43:20.502Z,1023.35
2018-05-29T07:44:20.520Z,1023.36
2018-05-29T07:45:20.536Z,1023.36
2018-05-29T07:46:20.546Z,1023.35
2018-05-29T07:47:20.558Z,1023.36
2018-05-29T07:48:20.575Z,1023.39
2018-05-29T07:49:20.581Z,1023.36
2018-05-29T07:50:20.599Z,1023.28
2018-05-29T07:51:20.609Z,1023.28
2018-05-29T07:52:20.632Z,1023.19
2018-05-29T07:53:20.632Z,1023.19
2018-05-29T07:54:20.645Z,1023.14
2018-05-29T07:55:20.664Z,1023.07
2018-05-29T07:56:20.672Z,1022.96
2018-05-29T07:57:20.691Z,1022.93
2018-05-29T07:58:20.699Z,1022.96
2018-05-29T07:59:20.717Z,1022.76
2018-05-29T08:00:20.731Z,1022.77
2018-05-29T08:01:20.738Z,1022.77
2018-05-29T08:02:20.751Z,1022.71
2018-05-29T08:03:20.765Z,1022.83
2018-05-29T08:04:20.783Z,1022.92
2018-05-29T08:05:20.791Z,1022.8
2018-05-29T08:06:20.867Z,1022.74
2018-05-29T08:07:20.818Z,1022.74
2018-05-29T08:08:20.835Z,1022.6
2018-05-29T08:09:20.843Z,1022.35
2018-05-29T08:10:20.862Z,1022.49
2018-05-29T08:11:20.870Z,1022.47
2018-05-29T08:12:20.887Z,1022.5
2018-05-29T08:13:20.905Z,1022.44
2018-05-29T08:14:20.915Z,1022.35
2018-05-29T08:15:20.925Z,1022.45
2018-05-29T08:16:20.935Z,1022.27
2018-05-29T08:17:20.954Z,1022.17
2018-05-29T08:18:20.967Z,1022.05
2018-05-29T08:19:20.975Z,1021.93
2018-05-29T08:20:20.993Z,1021.91
2018-05-29T08:21:21.001Z,1021.91
2018-05-29T08:22:21.020Z,1021.81
2018-05-29T08:23:21.027Z,1021.76
2018-05-29T08:24:21.046Z,1021.72
2018-05-29T08:25:21.054Z,1021.69
2018-05-29T08:26:21.073Z,1021.57
2018-05-29T08:27:21.086Z,1021.75
2018-05-29T08:28:21.106Z,1021.7
2018-05-29T08:29:21.112Z,1021.68
2018-05-29T08:30:21.125Z,1021.67
2018-05-29T08:31:21.134Z,1021.8
2018-05-29T08:32:21.147Z,1021.73
2018-05-29T08:33:21.166Z,1021.68
2018-05-29T08:34:21.187Z,1021.67
2018-05-29T08:35:21.193Z,1021.65
2018-05-29T08:36:21.202Z,1021.56
2018-05-29T08:37:21.224Z,1021.54
2018-05-29T08:38:21.229Z,1021.55
2018-05-29T08:39:21.278Z,1021.56
2018-05-29T08:40:21.255Z,1021.45
2018-05-29T08:41:21.273Z,1021.33
2018-05-29T08:42:21.286Z,1021.36
2018-05-29T08:43:21.301Z,1021.24
2018-05-29T08:44:21.309Z,1021.12
2018-05-29T08:45:21.328Z,1021.04
2018-05-29T08:46:21.411Z,1020.99
2018-05-29T08:47:21.349Z,1021.06
2018-05-29T08:48:21.380Z,1021.32
2018-05-29T08:49:21.381Z,1021.76
2018-05-29T08:50:21.395Z,1022.45
2018-05-29T08:51:21.409Z,1023.29
2018-05-29T08:52:21.415Z,1024.06
2018-05-29T08:53:21.436Z,1024.48
2018-05-29T08:54:21.442Z,1024.89
2018-05-29T08:55:21.460Z,1025.29
2018-05-29T08:56:21.466Z,1025.54
2018-05-29T08:57:21.505Z,1025.86
2018-05-29T08:58:21.490Z,1026.1
2018-05-29T08:59:21.507Z,1026.33
2018-05-29T09:00:21.516Z,1026.46
2018-05-29T09:01:21.526Z,1026.73
2018-05-29T09:02:21.534Z,1026.82
2018-05-29T09:03:21.548Z,1026.93
2018-05-29T09:04:21.640Z,1027.02
2018-05-29T09:05:21.563Z,1027.26
2018-05-29T09:06:21.573Z,1027.45
2018-05-29T09:07:21.581Z,1027.67
2018-05-29T09:08:21.595Z,1027.69
2018-05-29T09:09:21.599Z,1027.7
2018-05-29T09:10:21.864Z,1027.89
2018-05-29T09:11:21.634Z,1027.94
2018-05-29T09:12:21.624Z,1027.94
2018-05-29T09:13:21.640Z,1028.12
2018-05-29T09:14:21.642Z,1028.11
2018-05-29T09:15:21.651Z,1028.21
2018-05-29T09:16:21.655Z,1028.27
2018-05-29T09:17:21.661Z,1028.25
2018-05-29T09:18:21.667Z,1028.46
2018-05-29T09:19:21.682Z,1028.35
2018-05-29T09:20:21.685Z,1028.37
2018-05-29T09:21:21.686Z,1028.38
2018-05-29T09:22:21.697Z,1028.41
2018-05-29T09:23:21.700Z,1028.37
2018-05-29T09:24:21.709Z,1028.44
2018-05-29T09:25:21.709Z,1028.4
2018-05-29T09:26:21.721Z,1028.41
2018-05-29T09:27:21.719Z,1028.4
2018-05-29T09:28:21.731Z,1028.38
2018-05-29T09:29:21.731Z,1028.41
2018-05-29T09:30:21.741Z,1028.41
2018-05-29T09:31:21.741Z,1028.38
2018-05-29T09:32:21.750Z,1028.45
2018-05-29T09:33:21.755Z,1028.38
2018-05-29T09:34:21.762Z,1028.34
2018-05-29T09:35:21.789Z,1028.38
2018-05-29T09:36:21.773Z,1028.4
2018-05-29T09:37:21.769Z,1028.41
2018-05-29T09:38:21.774Z,1028.31
2018-05-29T09:39:21.779Z,1028.35
2018-05-29T09:40:21.839Z,1028.27
2018-05-29T09:41:21.790Z,1028.33
2018-05-29T09:42:21.801Z,1028.26
2018-05-29T09:43:21.799Z,1028.3
2018-05-29T09:44:21.807Z,1028.28
2018-05-29T09:45:21.812Z,1028.31
2018-05-29T09:46:21.821Z,1028.24
2018-05-29T09:47:21.821Z,1028.22
2018-05-29T09:48:21.872Z,1028.19
2018-05-29T09:49:21.835Z,1028.21
2018-05-29T09:50:21.834Z,1028.2
2018-05-29T09:51:21.832Z,1028.19
2018-05-29T09:52:21.836Z,1028.09
2018-05-29T09:53:21.847Z,1028.09
2018-05-29T09:54:21.850Z,1028.06
2018-05-29T09:55:21.855Z,1028.01
2018-05-29T09:56:21.855Z,1027.99
2018-05-29T09:57:21.871Z,1027.97
2018-05-29T09:58:21.866Z,1027.88
2018-05-29T09:59:21.874Z,1028.03
2018-05-29T10:00:21.873Z,1027.86
2018-05-29T10:01:21.883Z,1027.95
2018-05-29T10:02:21.887Z,1027.92
2018-05-29T10:03:21.887Z,1027.89
2018-05-29T10:04:21.896Z,1027.87
2018-05-29T10:05:21.899Z,1027.82
2018-05-29T10:06:21.904Z,1027.8
2018-05-29T10:07:21.907Z,1027.82
2018-05-29T10:08:21.909Z,1027.75
2018-05-29T10:09:21.934Z,1027.75
2018-05-29T10:10:21.922Z,1027.69
2018-05-29T10:11:21.948Z,1027.63
2018-05-29T10:12:21.927Z,1027.66
2018-05-29T10:13:21.936Z,1027.71
2018-05-29T10:14:21.935Z,1027.62
2018-05-29T10:15:21.947Z,1027.58
2018-05-29T10:16:21.946Z,1027.53
2018-05-29T10:17:21.954Z,1027.48
2018-05-29T10:18:21.959Z,1027.52
2018-05-29T10:19:21.972Z,1027.52
2018-05-29T10:20:21.964Z,1027.47
2018-05-29T10:21:21.969Z,1027.56
2018-05-29T10:22:21.973Z,1027.49
2018-05-29T10:23:22.008Z,1027.49
2018-05-29T10:24:21.989Z,1027.44
2018-05-29T10:25:22.001Z,1027.56
2018-05-29T10:26:21.993Z,1027.54
2018-05-29T10:27:22.001Z,1027.48
2018-05-29T10:28:22.002Z,1027.45
2018-05-29T10:29:22.011Z,1027.43
2018-05-29T10:30:22.012Z,1027.43
2018-05-29T10:31:22.021Z,1027.43
2018-05-29T10:32:22.021Z,1027.38
2018-05-29T10:33:22.037Z,1027.39
2018-05-29T10:34:22.032Z,1027.41
2018-05-29T10:35:22.040Z,1027.32
2018-05-29T10:36:22.041Z,1027.3
2018-05-29T10:37:22.053Z,1027.23
2018-05-29T10:38:22.054Z,1027.26
2018-05-29T10:39:22.060Z,1027.25
2018-05-29T10:40:22.060Z,1027.16
2018-05-29T10:41:22.071Z,1027.14
2018-05-29T10:42:22.074Z,1027.14
2018-05-29T10:43:22.330Z,1027.13
2018-05-29T10:44:22.080Z,1027.11
2018-05-29T10:45:22.094Z,1027.07
2018-05-29T10:46:22.097Z,1027.11
2018-05-29T10:47:22.101Z,1027.03
2018-05-29T10:48:22.101Z,1027.06
2018-05-29T10:49:22.110Z,1027
2018-05-29T10:50:22.111Z,1027.05
2018-05-29T10:51:22.123Z,1026.91
2018-05-29T10:52:22.124Z,1026.91
2018-05-29T10:53:22.131Z,1026.86
2018-05-29T10:54:22.136Z,1026.84
2018-05-29T10:55:22.137Z,1026.97
2018-05-29T10:56:22.141Z,1026.9
2018-05-29T10:57:22.152Z,1026.83
2018-05-29T10:58:22.158Z,1026.85
2018-05-29T10:59:22.163Z,1026.85
2018-05-29T11:00:22.168Z,1026.84
2018-05-29T11:01:22.172Z,1026.86
2018-05-29T11:02:22.189Z,1026.88
2018-05-29T11:03:22.187Z,1026.85
2018-05-29T11:04:22.185Z,1026.8
2018-05-29T11:05:22.193Z,1026.78
2018-05-29T11:06:22.193Z,1026.74
2018-05-29T11:07:22.204Z,1026.72
2018-05-29T11:08:22.204Z,1026.74
2018-05-29T11:09:22.212Z,1026.76
2018-05-29T11:10:22.215Z,1026.71
2018-05-29T11:11:22.224Z,1026.75
2018-05-29T11:12:22.230Z,1026.73
2018-05-29T11:13:22.231Z,1026.69
2018-05-29T11:14:22.301Z,1026.63
2018-05-29T11:15:22.246Z,1026.69
2018-05-29T11:16:22.251Z,1026.7
2018-05-29T11:17:22.270Z,1026.67
2018-05-29T11:18:22.256Z,1026.68
2018-05-29T11:19:22.267Z,1026.61
2018-05-29T11:20:22.267Z,1026.6
2018-05-29T11:21:22.278Z,1026.61
2018-05-29T11:22:22.278Z,1026.6
2018-05-29T11:23:22.289Z,1026.5
2018-05-29T11:24:22.291Z,1026.49
2018-05-29T11:25:22.294Z,1026.45
2018-05-29T11:26:22.298Z,1026.43
2018-05-29T11:27:22.318Z,1026.5
2018-05-29T11:28:22.320Z,1026.4
2018-05-29T11:29:22.315Z,1026.39
2018-05-29T11:30:22.320Z,1026.39
2018-05-29T11:31:22.330Z,1026.36
2018-05-29T11:32:22.336Z,1026.38
2018-05-29T11:33:22.336Z,1026.33
2018-05-29T11:34:22.349Z,1026.28
2018-05-29T11:35:22.347Z,1026.34
2018-05-29T11:36:22.359Z,1026.32
2018-05-29T11:37:22.358Z,1026.31
2018-05-29T11:38:22.370Z,1026.31
2018-05-29T11:39:22.370Z,1026.37
2018-05-29T11:40:22.378Z,1026.31
2018-05-29T11:41:22.400Z,1026.27
2018-05-29T11:42:22.455Z,1026.25
2018-05-29T11:43:22.391Z,1026.21
2018-05-29T11:44:22.401Z,1026.22
2018-05-29T11:45:22.404Z,1026.2
2018-05-29T11:46:22.408Z,1026.24
2018-05-29T11:47:22.412Z,1026.19
2018-05-29T11:48:22.423Z,1026.13
2018-05-29T11:49:22.424Z,1026.14
2018-05-29T11:50:22.434Z,1026.17
2018-05-29T11:51:22.433Z,1026.14
2018-05-29T11:52:22.444Z,1026.16
2018-05-29T11:53:22.448Z,1026.13
2018-05-29T11:54:22.456Z,1026.18
2018-05-29T11:55:22.455Z,1026.19
2018-05-29T11:56:22.466Z,1026.19
2018-05-29T11:57:22.472Z,1026.2
2018-05-29T11:58:22.477Z,1026.15
2018-05-29T11:59:22.477Z,1026.08
2018-05-29T12:00:22.482Z,1026.08
2018-05-29T12:01:22.494Z,1026.09
2018-05-29T12:02:22.498Z,1026.19
2018-05-29T12:03:22.507Z,1026.13
2018-05-29T12:04:22.505Z,1026.15
2018-05-29T12:05:22.517Z,1026.08
2018-05-29T12:06:22.515Z,1026.04
2018-05-29T12:07:22.526Z,1026.04
2018-05-29T12:08:22.531Z,1026.06
2018-05-29T12:09:22.537Z,1026
2018-05-29T12:10:22.542Z,1025.92